This is the latest recevied weather packets stored in our database for station/object KC1TEM-13. If no packets are shown the sender has not sent any weather packets the latest 10 day(s).
| Time | Temp. | Humidity | Pressure | Rain* | Wind** | Luminosity | Snow |
|---|---|---|---|---|---|---|---|
| 1788533767 | 26.11° C | 68% | 1010.2 hPa | 0 mm | - | 709 W/m² | - |
| 1788533462 | 25.56° C | 69% | 1010.3 hPa | 0 mm | - | 697 W/m² | - |
| 1788533158 | 25.56° C | 73% | 1010.4 hPa | 0 mm | - | 688 W/m² | - |
| 1788532854 | 25.56° C | 74% | 1010.5 hPa | 0 mm | - | 679 W/m² | - |
| 1788532549 | 25° C | 71% | 1010.5 hPa | 0 mm | - | 670 W/m² | - |
| 1788532246 | 25.56° C | 75% | 1010.4 hPa | 0 mm | - | 658 W/m² | - |
| 1788531942 | 25° C | 75% | 1010.5 hPa | 0 mm | - | 647 W/m² | - |
| 1788531637 | 25° C | 75% | 1010.6 hPa | 0 mm | - | 494 W/m² | - |
| 1788531338 | 23.89° C | 77% | 1010.5 hPa | 0 mm | - | 527 W/m² | - |
| 1788531033 | 24.44° C | 76% | 1010.6 hPa | 0 mm | - | 506 W/m² | - |
| 1788530733 | 25° C | 75% | 1010.6 hPa | 0 mm | - | 576 W/m² | - |
| 1788530428 | 24.44° C | 78% | 1010.7 hPa | 0 mm | - | 630 W/m² | - |
| 1788530127 | 23.33° C | 81% | 1010.6 hPa | 0 mm | - | 663 W/m² | - |
| 1788529824 | 23.33° C | 80% | 1010.7 hPa | 0 mm | - | 371 W/m² | - |
| 1788529519 | 22.78° C | 83% | 1010.5 hPa | 0 mm | - | 755 W/m² | - |
| 1788529213 | 22.78° C | 82% | 1011 hPa | 0 mm | - | 584 W/m² | - |
| 1788528908 | 22.78° C | 82% | 1010.7 hPa | 0 mm | - | 658 W/m² | - |
| 1788528604 | 22.22° C | 85% | 1010.8 hPa | 0 mm | - | 905 W/m² | - |
| 1788528304 | 21.67° C | 88% | 1010.6 hPa | 0 mm | - | 1025 W/m² | - |
| 1788528004 | 21.11° C | 90% | 1010.9 hPa | 0 mm | - | 285 W/m² | - |
| 1788527698 | 21.11° C | 92% | 1010.8 hPa | 0 mm | - | 243 W/m² | - |
| 1788527394 | 20.56° C | 93% | 1010.8 hPa | 0 mm | - | 208 W/m² | - |
| 1788527093 | 20° C | 94% | 1010.7 hPa | 0 mm | - | 169 W/m² | - |
| 1788526788 | 20° C | 97% | 1010.8 hPa | 0 mm | - | 172 W/m² | - |
| 1788526484 | 19.44° C | 98% | 1011 hPa | 0 mm | - | 141 W/m² | - |
* Rain latest hour (hover to see other rain measurements)
** Current wind speed in m/s (hover to see current wind gust speed)